NC73 weather

Hodges Farm Airport
Sladesville, North Carolina, United States

Public forecast

Using degrees Fahrenheit for public forecast. Weather courtesy of forecast.io.

Closest aviation weather report (METAR) to Hodges Farm Airport

Closest report is Hyde County Airport, 25.3 nm (46.8 km) ENE. Retrieved 2019/10/19 13:35 UTC (1 minute ago):

K7W6 191335Z AUTO 01005KT 10SM CLR 15/10 A3012 RMK AO2 T01470096

Closest aviation forecast (TAF) to Hodges Farm Airport

Closest forecast is Coastal Carolina Regional Airport, 36.5 nm (67.5 km) SW. Retrieved 2019/10/19 12:24 UTC (1 hour ago):

TAF KEWN 191121Z 1912/2012 09007KT P6SM SCT250 FM200100 11009G15KT 6SM RA OVC025 FM200500 11014G21KT 2SM +RA OVC008 WS020/16040KT